Etusivu
METAR-TAF:

METAR-TAF

Lentoasemat :

Uppsala, Ruotsi

Leveyspiiri: 59-53N, Pituuspiiri: 017-36E, korkeus merenpinnasta: 21 m

METAR: puuttuu

Aika: 15:59 (14:59 UTC)

Sääennuste

Tämä raportti tehtiin 3 tuntia ja 29 minuuttia sitten, kello 11.30 UTC
Ennuste voimassa 13. päivästä klo 12 UTC - 13. päivään klo 15 UTC
Tuuli 8 kn etelästä/lounaasta
Näkyvyys 10 km tai enemmän
Hajonneita pilviä 2000 ft:n korkeudessa
Todennäköisyys 30%
13. päivästä klo 12 UTC - 13. päivään klo 15 UTC
Näkyvyys: 3000 m
Hajonneita pilviä 600 ft:n korkeudessa
tihkusadetta, utua

TAF: ESCM 131130Z 1312/1315 21008KT 9999 BKN020 PROB30 1312/1315 3000 DZ BR BKN006 RMK MIL

Säähavainnot ja -ennusteet yli 4000 lentoasemalta (METAR- ja TAF-raportit).

Käytössä olevat sääasemat on merkitty karttaan keltaisilla ja punaisilla pisteillä.

Aseta hiiri pisteen päälle nähdäksesi sääaseman nimen.

Klikkaa sitten nähdäksesi säähavainnot ja -ennusteet.

Kartan vaihtaminen: klikkaa mustalla rastilla varustettuja vihreitä pisteitä, niin voit zoomata sisään; viivalla varustettua vihreää pistettä, niin voit zoomata ulos tai vihreitä nuolia, niin pääset viereisille kartoille.


METAR-TAF: